Terminal Aerodrome Forecast
Issued by NWS

Home | Current Version | Previous Version | Text Only | Print | Product List | Glossary On
Versions: 1 2 3 4 5 6 7 8 9 10 11 12 13 14
000
FTUS42 TJSJ 202320
TAFJSJ
TAF
TJSJ 202320Z 2100/2124 VRB04KT P6SM VCSH SCT040 SCT060 BKN090
     FM210400 VRB03KT P6SM SCT020 OVC150
     FM211200 13005KT P6SM VCSH SCT030 OVC100
     FM212300 VRB03KT P6SM FEW030 SCT060 SCT100=

USA.gov is the U.S. government's official web portal to all federal, state and local government web resources and services.